Time;durP1;ratioP1;P1;durP2;ratioP2;P2;SDS_P1;SDS_P2;PMS_P1;PMS_P2;Temp;Humidity;BMP_temperature;BMP_pressure;BME280_temperature;BME280_humidity;BME280_pressure;Samples;Min_cycle;Max_cycle;Signal;HPM_P1;HPM_P2
2024/02/22 00:01:01;;;;;;;3.92;1.40;;;11.90;39.00;;;;;;4954686;29;20023;-74
2024/02/22 00:03:27;;;;;;;2.20;1.20;;;11.80;39.30;;;;;;4955027;29;20079;-75
2024/02/22 00:05:54;;;;;;;3.53;1.85;;;11.80;39.70;;;;;;4937800;29;20024;-74
2024/02/22 00:08:19;;;;;;;2.45;1.50;;;11.80;39.70;;;;;;4954838;29;20039;-75
2024/02/22 00:10:45;;;;;;;3.13;1.73;;;11.70;40.30;;;;;;4937988;29;20465;-74
2024/02/22 00:13:11;;;;;;;2.53;1.60;;;11.70;40.70;;;;;;4955129;29;20103;-73
2024/02/22 00:15:36;;;;;;;3.35;1.70;;;11.60;41.50;;;;;;4937730;29;20051;-75
2024/02/22 00:18:04;;;;;;;5.78;1.70;;;11.60;41.50;;;;;;4954797;29;20030;-76
2024/02/22 00:20:30;;;;;;;2.78;1.60;;;11.50;42.10;;;;;;4954795;29;20030;-72
2024/02/22 00:22:57;;;;;;;1.55;1.33;;;11.50;42.00;;;;;;4954863;29;20015;-76
2024/02/22 00:25:23;;;;;;;3.65;1.50;;;11.40;42.20;;;;;;4954792;29;20019;-76
2024/02/22 00:27:49;;;;;;;3.97;1.45;;;11.40;42.50;;;;;;4954624;29;20476;-77
2024/02/22 00:30:14;;;;;;;3.03;1.67;;;11.40;42.90;;;;;;4954750;29;20040;-76
2024/02/22 00:32:43;;;;;;;2.42;1.60;;;11.30;43.20;;;;;;4954539;29;20102;-76
2024/02/22 00:35:10;;;;;;;2.40;1.60;;;11.30;43.90;;;;;;4954638;29;20038;-73
2024/02/22 00:37:36;;;;;;;4.80;1.52;;;11.30;44.00;;;;;;4937672;29;20033;-74
2024/02/22 00:40:03;;;;;;;2.78;1.60;;;11.20;44.30;;;;;;4954790;28;20384;-76
2024/02/22 00:42:32;;;;;;;3.42;2.00;;;11.20;44.30;;;;;;4959754;29;20042;-77
2024/02/22 00:44:58;;;;;;;3.10;1.70;;;11.20;44.50;;;;;;4958848;29;20051;-74
2024/02/22 00:47:23;;;;;;;3.35;1.80;;;11.10;44.80;;;;;;4958331;29;20031;-77
2024/02/22 00:49:49;;;;;;;2.97;1.50;;;11.10;45.30;;;;;;4941408;29;20027;-77
2024/02/22 00:52:15;;;;;;;2.45;1.70;;;11.10;46.30;;;;;;4941067;29;20027;-72
2024/02/22 00:54:44;;;;;;;5.22;1.50;;;11.10;47.50;;;;;;4941334;29;20070;-74
2024/02/22 00:57:10;;;;;;;3.65;1.50;;;11.00;48.60;;;;;;4958147;29;20030;-75
2024/02/22 00:59:35;;;;;;;2.97;1.98;;;11.00;49.30;;;;;;4958230;29;20031;-76
2024/02/22 01:02:01;;;;;;;2.55;1.60;;;10.90;49.80;;;;;;4958148;29;20035;-76
2024/02/22 01:04:27;;;;;;;4.22;1.98;;;10.90;50.00;;;;;;4958154;29;20036;-73
2024/02/22 01:06:57;;;;;;;2.28;1.73;;;10.90;50.20;;;;;;4958245;29;20038;-75
2024/02/22 01:09:23;;;;;;;3.42;1.73;;;10.80;50.70;;;;;;4957695;29;20039;-74
2024/02/22 01:11:50;;;;;;;2.75;1.52;;;10.60;51.50;;;;;;4940890;29;20046;-73
2024/02/22 01:14:15;;;;;;;3.25;1.77;;;10.60;52.00;;;;;;4940863;29;20452;-74
2024/02/22 01:16:42;;;;;;;2.67;1.77;;;10.60;52.30;;;;;;4940651;29;20094;-74
2024/02/22 01:19:08;;;;;;;3.13;1.67;;;10.60;52.60;;;;;;4941117;29;20051;-75
2024/02/22 01:21:34;;;;;;;2.10;1.52;;;10.50;53.00;;;;;;4940809;29;20034;-74
2024/02/22 01:23:59;;;;;;;3.85;1.65;;;10.50;53.30;;;;;;4940563;29;20078;-74
2024/02/22 01:26:25;;;;;;;4.40;2.05;;;10.40;53.60;;;;;;4957710;29;20020;-74
2024/02/22 01:28:51;;;;;;;1.83;1.60;;;10.40;53.90;;;;;;4957612;29;20049;-75
2024/02/22 01:31:16;;;;;;;3.70;1.58;;;10.30;54.30;;;;;;4957601;29;20361;-75
2024/02/22 01:33:43;;;;;;;2.30;1.58;;;10.40;54.40;;;;;;4957560;29;20035;-73
2024/02/22 01:36:10;;;;;;;2.60;1.27;;;10.40;54.50;;;;;;4957336;29;20556;-73
2024/02/22 01:38:38;;;;;;;3.13;1.70;;;10.40;54.80;;;;;;4940281;29;20073;-73
2024/02/22 01:41:05;;;;;;;3.75;1.83;;;10.30;55.40;;;;;;4939972;29;20110;-72
2024/02/22 01:43:31;;;;;;;1.80;1.42;;;10.20;55.80;;;;;;4957634;29;20383;-73
2024/02/22 01:45:57;;;;;;;2.60;1.60;;;10.20;56.00;;;;;;4940050;29;20027;-73
2024/02/22 01:48:22;;;;;;;2.05;1.52;;;10.10;56.60;;;;;;4940097;29;20114;-73
2024/02/22 01:50:52;;;;;;;2.58;1.45;;;10.10;56.70;;;;;;4940056;29;20055;-73
2024/02/22 01:53:28;;;;;;;2.35;1.45;;;10.10;56.90;;;;;;4938568;29;20035;-73
2024/02/22 01:55:59;;;;;;;2.45;1.75;;;10.10;57.20;;;;;;4955905;29;20473;-73
2024/02/22 01:58:25;;;;;;;2.78;1.58;;;10.00;57.60;;;;;;4973741;28;20117;-73
2024/02/22 02:00:51;;;;;;;3.10;1.50;;;10.00;57.90;;;;;;4958629;28;20500;-73
2024/02/22 02:03:16;;;;;;;2.72;1.58;;;10.00;58.20;;;;;;4958330;28;20026;-72
2024/02/22 02:05:44;;;;;;;1.88;1.17;;;10.10;58.40;;;;;;4959156;28;20022;-73
2024/02/22 02:08:12;;;;;;;1.63;1.30;;;10.10;58.70;;;;;;4976013;28;20077;-73
2024/02/22 02:10:37;;;;;;;2.85;1.13;;;10.10;58.70;;;;;;4976122;28;20061;-73
2024/02/22 02:13:04;;;;;;;2.75;1.65;;;10.10;58.80;;;;;;4958764;28;20057;-72
2024/02/22 02:15:29;;;;;;;2.63;1.23;;;10.00;58.80;;;;;;4975792;28;20365;-72
2024/02/22 02:17:55;;;;;;;3.40;1.52;;;10.00;58.90;;;;;;4958934;28;20033;-74
2024/02/22 02:20:26;;;;;;;1.65;1.20;;;10.10;59.10;;;;;;4958929;28;20026;-75
2024/02/22 02:23:23;;;;;;;2.60;1.17;;;10.00;59.10;;;;;;4975997;28;20495;-74
2024/02/22 02:25:49;;;;;;;2.35;1.40;;;10.00;59.30;;;;;;4958822;28;20086;-73
2024/02/22 02:28:14;;;;;;;1.85;1.35;;;10.00;59.60;;;;;;4975769;28;20031;-73
2024/02/22 02:30:40;;;;;;;1.73;1.08;;;10.00;59.80;;;;;;4974729;28;20030;-73
2024/02/22 02:33:05;;;;;;;1.42;1.23;;;10.00;60.30;;;;;;4958863;28;20089;-74
2024/02/22 02:35:37;;;;;;;2.80;1.52;;;9.90;60.50;;;;;;4958736;28;20030;-73
2024/02/22 02:38:13;;;;;;;3.20;1.42;;;9.90;60.90;;;;;;4975775;28;20387;-74
2024/02/22 02:40:39;;;;;;;1.92;1.27;;;9.90;61.70;;;;;;4965803;28;20531;-74
2024/02/22 02:43:05;;;;;;;2.75;1.38;;;9.80;62.10;;;;;;4975575;28;20138;-75
2024/02/22 02:45:30;;;;;;;1.80;1.30;;;9.80;63.30;;;;;;4958329;28;20058;-75
2024/02/22 02:47:56;;;;;;;2.05;1.20;;;9.70;63.50;;;;;;4975171;28;20035;-74
2024/02/22 02:50:21;;;;;;;1.52;1.40;;;9.80;63.40;;;;;;4975402;28;20464;-76
2024/02/22 02:52:47;;;;;;;3.65;1.42;;;9.70;63.10;;;;;;4958129;28;20027;-77
2024/02/22 02:55:13;;;;;;;4.35;1.50;;;9.70;63.10;;;;;;4958459;28;20472;-73
2024/02/22 02:57:40;;;;;;;1.67;1.30;;;9.70;63.50;;;;;;4958293;28;20037;-76
2024/02/22 03:00:13;;;;;;;1.10;1.00;;;9.60;63.80;;;;;;4975320;28;20026;-75
2024/02/22 03:02:42;;;;;;;2.75;1.10;;;9.60;63.90;;;;;;4975218;28;20026;-75
2024/02/22 03:05:09;;;;;;;4.60;1.65;;;9.60;64.40;;;;;;4957781;28;20054;-74
2024/02/22 03:07:35;;;;;;;1.50;0.90;;;9.60;65.80;;;;;;4975004;28;20106;-75
2024/02/22 03:10:01;;;;;;;2.20;1.40;;;9.50;66.20;;;;;;4958070;28;20023;-74
2024/02/22 03:12:27;;;;;;;2.72;1.15;;;9.50;65.70;;;;;;4957987;28;20460;-74
2024/02/22 03:14:52;;;;;;;0.80;0.77;;;9.50;66.70;;;;;;4957904;28;20471;-75
2024/02/22 03:17:18;;;;;;;1.30;0.90;;;9.50;66.80;;;;;;4957392;28;20404;-74
2024/02/22 03:19:44;;;;;;;2.15;1.00;;;9.50;66.30;;;;;;4957728;28;20100;-74
2024/02/22 03:22:10;;;;;;;0.98;0.88;;;9.40;68.00;;;;;;4974856;28;20107;-75
2024/02/22 03:24:36;;;;;;;2.90;1.15;;;9.40;67.10;;;;;;4957312;28;20027;-74
2024/02/22 03:27:03;;;;;;;2.75;1.10;;;9.40;67.60;;;;;;4957640;28;20023;-73
2024/02/22 03:29:29;;;;;;;1.73;1.10;;;9.40;67.60;;;;;;4957487;28;20043;-75
2024/02/22 03:31:55;;;;;;;2.30;1.30;;;9.30;68.90;;;;;;4957465;28;20027;-75
2024/02/22 03:34:21;;;;;;;2.38;1.35;;;9.30;69.10;;;;;;4957176;28;20036;-73
2024/02/22 03:36:48;;;;;;;1.75;1.30;;;9.30;69.40;;;;;;4957556;28;20495;-73
2024/02/22 03:39:23;;;;;;;2.67;1.05;;;9.20;69.80;;;;;;4974470;28;20109;-74
2024/02/22 03:41:48;;;;;;;3.42;1.00;;;9.20;71.00;;;;;;4957083;28;20023;-74
2024/02/22 03:44:17;;;;;;;1.63;1.20;;;9.20;71.00;;;;;;4974523;28;20035;-75
2024/02/22 03:46:50;;;;;;;1.17;0.90;;;9.20;71.30;;;;;;4974429;28;20050;-74
2024/02/22 03:49:15;;;;;;;1.20;0.88;;;9.20;70.70;;;;;;4957173;28;20488;-76
2024/02/22 03:51:41;;;;;;;2.03;1.20;;;9.20;70.90;;;;;;4973152;28;20047;-75
2024/02/22 03:54:06;;;;;;;1.20;1.10;;;9.10;71.70;;;;;;4974317;28;20408;-73
2024/02/22 03:56:33;;;;;;;0.93;0.82;;;9.10;72.00;;;;;;4957031;28;20030;-73
2024/02/22 03:58:59;;;;;;;3.85;1.52;;;9.10;72.20;;;;;;4974250;28;20109;-73
2024/02/22 04:01:24;;;;;;;1.80;1.10;;;9.10;72.50;;;;;;4957188;28;20061;-75
2024/02/22 04:03:50;;;;;;;1.30;1.08;;;9.10;74.10;;;;;;4974292;28;20038;-73
2024/02/22 04:06:15;;;;;;;2.22;1.20;;;9.00;72.30;;;;;;4974226;28;20043;-73
2024/02/22 04:08:41;;;;;;;3.53;1.25;;;9.10;73.20;;;;;;4974050;28;20031;-75
2024/02/22 04:11:06;;;;;;;2.20;1.23;;;9.10;73.90;;;;;;4956905;28;20117;-75
2024/02/22 04:13:32;;;;;;;1.42;1.10;;;9.00;74.60;;;;;;4974129;28;20030;-75
2024/02/22 04:15:57;;;;;;;1.75;1.05;;;9.00;73.80;;;;;;4973208;28;20500;-75
2024/02/22 04:18:23;;;;;;;1.30;0.80;;;9.00;74.50;;;;;;4974073;28;20031;-74
2024/02/22 04:20:48;;;;;;;1.33;1.13;;;9.00;74.30;;;;;;4973904;28;20030;-75
2024/02/22 04:23:14;;;;;;;0.90;0.80;;;9.00;74.70;;;;;;4973920;28;20472;-75
2024/02/22 04:25:40;;;;;;;1.77;1.10;;;8.90;75.10;;;;;;4973987;28;20038;-76
2024/02/22 04:28:06;;;;;;;2.60;1.60;;;8.90;74.80;;;;;;4973831;28;20110;-76
2024/02/22 04:30:31;;;;;;;1.48;1.05;;;9.00;75.70;;;;;;4973985;28;20118;-75
2024/02/22 04:32:57;;;;;;;1.77;1.20;;;8.90;76.40;;;;;;4972767;28;20030;-75
2024/02/22 04:35:22;;;;;;;3.05;1.10;;;8.90;75.20;;;;;;4973979;28;20468;-76
2024/02/22 04:37:48;;;;;;;1.80;1.20;;;8.90;75.80;;;;;;4972645;28;20027;-76
2024/02/22 04:40:14;;;;;;;1.63;1.25;;;8.90;76.90;;;;;;4956772;28;20019;-75
2024/02/22 04:42:39;;;;;;;1.70;1.00;;;9.00;76.90;;;;;;4973890;28;20039;-76
2024/02/22 04:45:06;;;;;;;2.65;1.40;;;8.90;76.40;;;;;;4972613;28;20527;-76
2024/02/22 04:47:36;;;;;;;1.85;1.00;;;9.00;75.50;;;;;;4973829;28;20030;-76
2024/02/22 04:50:03;;;;;;;2.85;1.13;;;9.00;76.30;;;;;;4973788;28;20353;-75
2024/02/22 04:52:29;;;;;;;1.65;1.00;;;9.00;75.50;;;;;;4973469;28;20022;-74
2024/02/22 04:54:55;;;;;;;2.13;0.93;;;8.90;76.30;;;;;;4973662;28;20030;-74
2024/02/22 04:57:22;;;;;;;2.15;1.13;;;9.00;75.80;;;;;;4973712;28;20026;-75
2024/02/22 04:59:47;;;;;;;1.20;0.88;;;8.90;77.10;;;;;;4973692;28;20353;-74
2024/02/22 05:02:13;;;;;;;1.83;0.73;;;9.00;77.10;;;;;;4973640;28;20078;-76
2024/02/22 05:04:39;;;;;;;2.72;1.10;;;9.00;76.70;;;;;;4973634;28;20150;-75
2024/02/22 05:07:04;;;;;;;0.80;0.60;;;8.90;77.80;;;;;;4973668;28;20106;-74
2024/02/22 05:09:30;;;;;;;2.20;0.88;;;9.00;77.20;;;;;;4973521;28;20065;-74
2024/02/22 05:11:56;;;;;;;1.98;0.70;;;8.90;78.50;;;;;;4972704;28;20460;-75
2024/02/22 05:14:21;;;;;;;1.27;1.00;;;8.90;78.30;;;;;;4973621;28;20106;-75
2024/02/22 05:16:47;;;;;;;2.88;1.05;;;8.90;79.60;;;;;;4973362;28;20445;-74
2024/02/22 05:19:12;;;;;;;1.30;0.50;;;8.90;78.80;;;;;;4973579;28;20589;-75
2024/02/22 05:21:38;;;;;;;1.25;0.60;;;8.80;78.60;;;;;;4973562;28;20026;-74
2024/02/22 05:24:04;;;;;;;0.82;0.63;;;8.80;79.00;;;;;;4973429;28;20023;-75
2024/02/22 05:26:29;;;;;;;2.00;0.80;;;8.80;77.70;;;;;;4956113;28;20086;-75
2024/02/22 05:28:55;;;;;;;1.00;0.70;;;8.80;78.90;;;;;;4976846;28;20113;-74
2024/02/22 05:31:25;;;;;;;1.10;0.80;;;8.80;79.10;;;;;;4976942;28;20042;-75
2024/02/22 05:33:50;;;;;;;2.00;0.90;;;8.80;79.30;;;;;;4976899;28;20034;-75
2024/02/22 05:36:19;;;;;;;1.92;1.13;;;8.80;79.00;;;;;;4976741;28;20098;-75
2024/02/22 05:38:44;;;;;;;1.58;1.10;;;8.80;78.60;;;;;;4976710;28;20030;-74
2024/02/22 05:41:10;;;;;;;2.25;1.80;;;8.80;80.20;;;;;;4976629;28;20026;-74
2024/02/22 05:43:36;;;;;;;3.67;1.85;;;8.80;79.80;;;;;;4976811;28;20432;-74
2024/02/22 05:46:02;;;;;;;6.05;2.10;;;8.70;78.90;;;;;;4976540;28;20027;-74
2024/02/22 05:48:27;;;;;;;2.72;1.60;;;8.80;78.90;;;;;;4976433;28;20031;-74
2024/02/22 05:50:54;;;;;;;3.15;2.00;;;8.80;78.30;;;;;;4976498;28;20031;-73
2024/02/22 05:53:20;;;;;;;4.30;1.80;;;8.80;78.80;;;;;;4975499;28;20118;-74
2024/02/22 05:55:45;;;;;;;3.63;2.13;;;8.80;77.00;;;;;;4959351;28;20113;-73
2024/02/22 05:58:13;;;;;;;4.18;2.03;;;8.90;78.50;;;;;;4959221;28;20057;-74
2024/02/22 06:00:38;;;;;;;4.35;2.30;;;8.80;79.10;;;;;;4959156;28;20034;-75
2024/02/22 06:03:04;;;;;;;3.75;2.20;;;8.80;79.20;;;;;;4975790;28;20027;-73
2024/02/22 06:05:30;;;;;;;3.80;2.88;;;8.70;79.90;;;;;;4959197;28;20062;-74
2024/02/22 06:07:55;;;;;;;4.47;2.50;;;8.70;78.90;;;;;;4959221;28;20089;-74
2024/02/22 06:10:21;;;;;;;2.90;2.03;;;8.70;78.30;;;;;;4959529;28;20033;-75
2024/02/22 06:12:47;;;;;;;2.50;1.88;;;8.70;79.20;;;;;;4959202;28;20392;-75
2024/02/22 06:15:12;;;;;;;4.97;1.88;;;8.70;79.40;;;;;;4962017;28;20392;-74
2024/02/22 06:17:38;;;;;;;3.80;1.77;;;8.70;79.60;;;;;;4974499;28;20403;-74
2024/02/22 06:20:05;;;;;;;2.63;1.40;;;8.70;78.70;;;;;;4958759;28;20029;-74
2024/02/22 06:22:32;;;;;;;3.55;1.40;;;8.70;79.70;;;;;;4976106;28;20054;-75
2024/02/22 06:24:57;;;;;;;3.03;1.50;;;8.70;80.80;;;;;;4975832;28;20129;-74
2024/02/22 06:27:23;;;;;;;1.65;1.20;;;8.70;80.60;;;;;;4975843;28;20479;-74
2024/02/22 06:29:48;;;;;;;2.25;1.02;;;8.70;80.00;;;;;;4975621;28;20502;-75
2024/02/22 06:32:14;;;;;;;3.25;0.90;;;8.70;80.10;;;;;;4975679;28;20426;-75
2024/02/22 06:34:40;;;;;;;3.72;1.27;;;8.60;80.70;;;;;;4975711;28;20102;-74
2024/02/22 06:37:06;;;;;;;0.55;0.50;;;8.60;80.30;;;;;;4975243;28;20498;-74
2024/02/22 06:39:31;;;;;;;0.68;0.40;;;8.60;78.80;;;;;;4980495;28;20090;-75
2024/02/22 06:41:57;;;;;;;0.60;0.47;;;8.70;79.70;;;;;;4975640;28;20023;-76
2024/02/22 06:44:22;;;;;;;0.68;0.55;;;8.60;81.10;;;;;;4958212;28;20117;-75
2024/02/22 06:46:48;;;;;;;1.70;0.50;;;8.60;78.70;;;;;;4975454;28;20029;-77
2024/02/22 06:49:17;;;;;;;0.43;0.30;;;8.70;80.20;;;;;;4974460;28;20047;-76
2024/02/22 06:51:43;;;;;;;0.40;0.40;;;8.70;78.70;;;;;;4975495;28;20030;-73
2024/02/22 06:54:09;;;;;;;0.30;0.30;;;8.60;80.10;;;;;;4974115;28;20023;-74
2024/02/22 06:56:35;;;;;;;0.45;0.45;;;8.60;79.80;;;;;;4975392;28;20101;-74
2024/02/22 06:59:00;;;;;;;0.50;0.30;;;8.60;79.60;;;;;;4975237;28;20162;-74
2024/02/22 07:01:26;;;;;;;0.30;0.30;;;8.60;80.50;;;;;;4975078;28;20030;-74
2024/02/22 07:03:51;;;;;;;0.82;0.40;;;8.60;79.90;;;;;;4975024;28;20532;-74
2024/02/22 07:06:17;;;;;;;0.15;0.10;;;8.60;80.50;;;;;;4975082;28;20039;-73
2024/02/22 07:08:43;;;;;;;0.10;0.10;;;8.60;80.60;;;;;;4975019;28;20046;-74
2024/02/22 07:11:13;;;;;;;0.20;0.20;;;8.60;80.40;;;;;;4975048;28;20026;-74
2024/02/22 07:13:39;;;;;;;0.50;0.30;;;8.60;80.40;;;;;;4974257;28;20026;-74
2024/02/22 07:16:06;;;;;;;0.30;0.22;;;8.60;80.40;;;;;;4973567;28;20051;-75
2024/02/22 07:18:32;;;;;;;0.30;0.30;;;8.60;80.40;;;;;;4974995;28;20034;-74
2024/02/22 07:20:58;;;;;;;0.28;0.28;;;8.60;80.40;;;;;;4957450;28;20023;-74
2024/02/22 07:23:23;;;;;;;0.63;0.20;;;8.60;81.00;;;;;;4974805;28;20102;-74
2024/02/22 07:25:49;;;;;;;1.48;0.28;;;8.50;81.20;;;;;;4974671;28;20029;-74
2024/02/22 07:28:16;;;;;;;0.30;0.20;;;8.50;81.70;;;;;;4974673;28;20046;-75
2024/02/22 07:30:42;;;;;;;1.35;0.43;;;8.50;81.80;;;;;;4974621;28;20102;-73
2024/02/22 07:33:09;;;;;;;0.65;0.20;;;8.50;81.00;;;;;;4974660;28;20113;-75
2024/02/22 07:35:35;;;;;;;0.30;0.10;;;8.60;80.90;;;;;;4974745;28;20019;-74
2024/02/22 07:38:00;;;;;;;0.30;0.20;;;8.50;82.20;;;;;;4979005;28;20026;-75
2024/02/22 07:40:26;;;;;;;1.98;0.20;;;8.50;80.90;;;;;;4974791;28;20030;-75
2024/02/22 07:42:52;;;;;;;0.95;0.25;;;8.50;81.10;;;;;;4957328;28;20093;-73
2024/02/22 07:45:18;;;;;;;0.28;0.13;;;8.50;81.00;;;;;;4974624;28;20061;-74
2024/02/22 07:47:44;;;;;;;0.50;0.40;;;8.50;80.60;;;;;;4974388;28;20023;-75
2024/02/22 07:50:10;;;;;;;1.15;0.32;;;8.50;81.50;;;;;;4956562;28;20073;-74
2024/02/22 07:52:39;;;;;;;1.33;0.28;;;8.60;80.80;;;;;;4974076;28;20019;-75
2024/02/22 07:55:06;;;;;;;0.47;0.10;;;8.60;81.30;;;;;;4956828;28;20026;-73
2024/02/22 07:57:32;;;;;;;0.82;0.20;;;8.60;80.40;;;;;;4974367;28;20098;-73
2024/02/22 07:59:57;;;;;;;0.15;0.13;;;8.60;80.90;;;;;;4974447;28;20071;-74
2024/02/22 08:02:23;;;;;;;2.25;0.50;;;8.60;81.00;;;;;;4974259;28;20045;-75
2024/02/22 08:04:50;;;;;;;0.30;0.28;;;8.60;80.20;;;;;;4973809;28;20078;-74
2024/02/22 08:07:18;;;;;;;0.50;0.30;;;8.60;80.30;;;;;;4956517;28;20023;-74
2024/02/22 08:09:43;;;;;;;0.50;0.35;;;8.60;80.60;;;;;;4974194;28;20039;-74
2024/02/22 08:12:09;;;;;;;0.17;0.17;;;8.60;81.30;;;;;;4974024;28;20106;-74
2024/02/22 08:14:35;;;;;;;0.30;0.20;;;8.60;81.50;;;;;;4956872;28;20506;-75
2024/02/22 08:17:01;;;;;;;0.20;0.20;;;8.60;80.70;;;;;;4974020;28;20051;-75
2024/02/22 08:19:27;;;;;;;0.17;0.17;;;8.60;79.80;;;;;;4974261;28;20074;-75
2024/02/22 08:21:53;;;;;;;0.10;0.10;;;8.70;80.30;;;;;;4972791;28;20122;-76
2024/02/22 08:24:21;;;;;;;0.35;0.10;;;8.70;80.20;;;;;;4974351;28;20054;-74
2024/02/22 08:26:46;;;;;;;0.40;0.10;;;8.70;80.40;;;;;;4957316;28;20030;-74
2024/02/22 08:29:12;;;;;;;0.20;0.20;;;8.70;80.60;;;;;;4974073;28;20039;-74
2024/02/22 08:31:37;;;;;;;0.38;0.20;;;8.80;79.50;;;;;;4972969;28;20054;-74
2024/02/22 08:34:03;;;;;;;0.30;0.20;;;8.80;79.70;;;;;;4957046;28;20030;-75
2024/02/22 08:36:29;;;;;;;0.20;0.20;;;8.80;80.80;;;;;;4956839;28;20023;-74
2024/02/22 08:38:54;;;;;;;0.40;0.25;;;8.80;79.90;;;;;;4956891;28;20027;-74
2024/02/22 08:41:22;;;;;;;0.00;0.00;;;8.80;80.70;;;;;;4972717;28;20073;-74
2024/02/22 08:43:48;;;;;;;2.13;0.15;;;8.80;78.60;;;;;;4956859;28;20027;-74
2024/02/22 08:46:13;;;;;;;0.20;0.10;;;8.90;78.30;;;;;;4956806;28;20030;-76
2024/02/22 08:48:39;;;;;;;0.93;0.20;;;8.90;79.70;;;;;;4956603;28;20034;-75
2024/02/22 08:51:04;;;;;;;0.32;0.20;;;8.90;80.30;;;;;;4974193;28;20054;-75
2024/02/22 08:53:30;;;;;;;0.20;0.20;;;8.80;81.00;;;;;;4973912;28;20041;-75
2024/02/22 08:55:55;;;;;;;0.20;0.13;;;8.80;79.50;;;;;;4973933;28;20039;-75
2024/02/22 08:58:21;;;;;;;0.60;0.20;;;8.90;79.50;;;;;;4974543;28;20023;-76
2024/02/22 09:00:47;;;;;;;0.22;0.17;;;8.90;79.70;;;;;;4978071;28;20440;-74
2024/02/22 09:03:13;;;;;;;0.10;0.10;;;9.00;80.00;;;;;;4977055;28;20102;-75
2024/02/22 09:05:41;;;;;;;0.38;0.10;;;9.00;78.30;;;;;;4977755;28;20069;-74
2024/02/22 09:08:06;;;;;;;0.30;0.20;;;9.00;79.90;;;;;;4978031;28;20543;-76
2024/02/22 09:10:32;;;;;;;0.28;0.20;;;9.10;79.00;;;;;;4977926;28;20031;-76
2024/02/22 09:12:58;;;;;;;1.30;0.20;;;9.10;80.10;;;;;;4976288;28;20027;-74
2024/02/22 09:15:23;;;;;;;0.00;0.00;;;9.10;79.10;;;;;;4977434;28;20061;-75
2024/02/22 09:17:49;;;;;;;0.17;0.10;;;9.30;78.40;;;;;;4977753;28;20476;-74
2024/02/22 09:20:15;;;;;;;0.00;0.00;;;9.40;78.00;;;;;;4977625;28;20089;-75
2024/02/22 09:22:41;;;;;;;0.10;0.10;;;9.50;78.60;;;;;;4960138;28;20523;-74
2024/02/22 09:25:08;;;;;;;0.20;0.20;;;9.40;78.00;;;;;;4977024;28;20034;-74
2024/02/22 09:27:34;;;;;;;1.58;0.10;;;9.50;77.90;;;;;;4976941;28;20035;-74
2024/02/22 09:30:03;;;;;;;0.68;0.17;;;9.40;77.90;;;;;;4977235;28;20070;-74
2024/02/22 09:32:30;;;;;;;0.55;0.10;;;9.40;77.90;;;;;;4960078;28;20404;-73
2024/02/22 09:34:55;;;;;;;0.30;0.10;;;9.50;77.80;;;;;;4960202;28;20083;-73
2024/02/22 09:37:21;;;;;;;0.10;0.10;;;9.50;77.20;;;;;;4959760;28;20501;-75
2024/02/22 09:39:49;;;;;;;0.10;0.10;;;9.50;78.30;;;;;;4977249;28;20027;-76
2024/02/22 09:42:15;;;;;;;0.10;0.10;;;9.50;79.00;;;;;;4977101;28;20027;-76
2024/02/22 09:44:41;;;;;;;0.10;0.10;;;9.50;77.60;;;;;;4959547;28;20033;-77
2024/02/22 09:47:08;;;;;;;0.17;0.10;;;9.60;77.50;;;;;;4977034;28;20082;-76
2024/02/22 09:49:34;;;;;;;0.30;0.20;;;9.60;77.10;;;;;;4976932;28;20031;-76
2024/02/22 09:52:00;;;;;;;0.00;0.00;;;9.60;75.60;;;;;;4959561;28;20023;-74
2024/02/22 09:54:25;;;;;;;4.40;0.50;;;9.70;76.90;;;;;;4976729;28;20075;-74
2024/02/22 09:56:51;;;;;;;0.38;0.20;;;9.70;77.00;;;;;;4959351;28;20026;-74
2024/02/22 09:59:18;;;;;;;0.10;0.00;;;9.70;76.60;;;;;;4959300;28;20125;-73
2024/02/22 10:01:46;;;;;;;0.03;0.00;;;9.70;77.00;;;;;;4975505;28;20029;-74
2024/02/22 10:04:19;;;;;;;0.17;0.10;;;9.90;76.90;;;;;;4976596;28;20057;-74
2024/02/22 10:06:44;;;;;;;0.40;0.10;;;9.80;76.30;;;;;;4959117;28;20406;-74
2024/02/22 10:09:10;;;;;;;0.40;0.10;;;9.80;77.20;;;;;;4975979;28;20039;-73
2024/02/22 10:11:47;;;;;;;0.28;0.28;;;9.90;76.30;;;;;;4959096;28;20027;-74
2024/02/22 10:14:13;;;;;;;0.25;0.10;;;10.10;75.10;;;;;;4957755;28;20054;-75
2024/02/22 10:16:41;;;;;;;1.85;0.30;;;10.10;74.20;;;;;;4976108;28;20050;-74
2024/02/22 10:19:07;;;;;;;0.10;0.10;;;10.10;74.70;;;;;;4976479;28;20476;-75
2024/02/22 10:21:33;;;;;;;0.30;0.10;;;10.10;75.10;;;;;;4962159;28;20035;-74
2024/02/22 10:23:59;;;;;;;0.00;0.00;;;10.10;75.20;;;;;;4958714;28;20029;-74
2024/02/22 10:26:26;;;;;;;0.05;0.05;;;10.00;75.50;;;;;;4975746;28;20110;-74
2024/02/22 10:29:08;;;;;;;0.15;0.13;;;9.90;75.60;;;;;;4957864;28;20481;-75
2024/02/22 10:31:40;;;;;;;0.10;0.10;;;10.00;76.70;;;;;;4975809;28;20530;-73
2024/02/22 10:34:05;;;;;;;0.10;0.10;;;9.90;76.30;;;;;;4958494;28;20053;-74
2024/02/22 10:36:32;;;;;;;0.10;0.10;;;9.90;76.80;;;;;;4958576;28;20023;-75
2024/02/22 10:38:58;;;;;;;1.05;0.20;;;9.80;76.10;;;;;;4975708;28;20623;-74
2024/02/22 10:41:25;;;;;;;1.45;0.03;;;9.80;76.40;;;;;;4975766;28;20085;-74
2024/02/22 10:43:52;;;;;;;0.08;0.08;;;9.70;76.40;;;;;;4979505;28;20077;-74
2024/02/22 10:46:19;;;;;;;0.75;0.10;;;9.80;75.90;;;;;;4975609;28;20023;-75
2024/02/22 10:48:47;;;;;;;0.32;0.10;;;9.90;76.90;;;;;;4975269;28;20042;-74
2024/02/22 10:51:14;;;;;;;0.03;0.03;;;10.00;77.40;;;;;;4975591;28;20380;-74
2024/02/22 10:53:42;;;;;;;2.72;0.10;;;10.10;75.30;;;;;;4975181;28;20468;-75
2024/02/22 10:56:11;;;;;;;0.15;0.15;;;10.10;74.80;;;;;;4958117;28;20050;-73
2024/02/22 10:58:39;;;;;;;0.10;0.10;;;10.10;75.70;;;;;;4975054;28;20022;-74
2024/02/22 11:01:08;;;;;;;0.00;0.00;;;10.20;75.00;;;;;;4975469;28;20046;-74
2024/02/22 11:03:35;;;;;;;0.20;0.13;;;10.20;74.60;;;;;;4957685;28;20022;-75
2024/02/22 11:06:03;;;;;;;0.00;0.00;;;10.10;75.10;;;;;;4975416;28;20050;-75
2024/02/22 11:08:29;;;;;;;0.60;0.20;;;10.10;76.10;;;;;;4957518;28;20031;-75
2024/02/22 11:11:07;;;;;;;0.08;0.08;;;10.00;75.40;;;;;;4975174;28;20061;-74
2024/02/22 11:13:34;;;;;;;1.20;0.17;;;9.80;76.50;;;;;;4957734;28;20373;-74
2024/02/22 11:16:00;;;;;;;1.10;0.20;;;9.80;77.00;;;;;;4974740;28;20051;-74
2024/02/22 11:18:25;;;;;;;0.10;0.10;;;9.80;77.30;;;;;;4974863;28;20042;-74
2024/02/22 11:20:52;;;;;;;0.43;0.10;;;9.70;77.60;;;;;;4974166;28;20466;-74
2024/02/22 11:23:19;;;;;;;0.22;0.10;;;9.60;75.90;;;;;;4957664;28;20118;-73
2024/02/22 11:25:45;;;;;;;0.20;0.20;;;9.50;77.60;;;;;;4974419;28;20023;-74
2024/02/22 11:28:12;;;;;;;0.47;0.15;;;9.40;78.30;;;;;;4974829;28;20046;-75
2024/02/22 11:30:39;;;;;;;1.60;0.10;;;9.50;79.00;;;;;;4974539;28;20023;-74
2024/02/22 11:33:07;;;;;;;0.20;0.20;;;9.40;78.00;;;;;;4974461;28;20023;-74
2024/02/22 11:35:33;;;;;;;0.30;0.10;;;9.40;79.50;;;;;;4974517;28;20018;-74
2024/02/22 11:38:02;;;;;;;0.30;0.15;;;9.40;79.60;;;;;;4973218;28;20077;-73
2024/02/22 11:40:30;;;;;;;2.15;0.30;;;9.40;79.20;;;;;;4974727;28;20026;-74
2024/02/22 11:42:59;;;;;;;0.20;0.10;;;9.40;79.10;;;;;;4974333;28;20539;-74
2024/02/22 11:45:25;;;;;;;0.40;0.10;;;9.40;79.20;;;;;;4977695;28;20085;-74
2024/02/22 11:47:51;;;;;;;0.43;0.20;;;9.50;78.10;;;;;;4974517;28;20031;-73
2024/02/22 11:50:17;;;;;;;0.38;0.22;;;9.50;79.50;;;;;;4974253;28;20031;-74
2024/02/22 11:52:47;;;;;;;0.10;0.10;;;9.60;79.60;;;;;;4973972;28;20023;-73
2024/02/22 11:55:12;;;;;;;0.10;0.10;;;9.70;77.60;;;;;;4973717;28;20029;-74
2024/02/22 11:57:38;;;;;;;0.00;0.00;;;9.70;77.20;;;;;;4973808;28;20023;-74
2024/02/22 12:00:04;;;;;;;0.38;0.30;;;9.80;77.20;;;;;;4973648;28;20124;-74
2024/02/22 12:02:33;;;;;;;0.08;0.00;;;9.80;77.90;;;;;;4973822;28;20023;-74
2024/02/22 12:04:59;;;;;;;0.28;0.10;;;9.90;76.40;;;;;;4956442;28;20476;-75
2024/02/22 12:07:26;;;;;;;0.10;0.10;;;9.90;77.30;;;;;;4956857;28;20094;-74
2024/02/22 12:09:52;;;;;;;0.10;0.10;;;10.00;75.50;;;;;;4973764;28;20035;-74
2024/02/22 12:12:18;;;;;;;0.40;0.15;;;10.10;76.20;;;;;;4974145;28;20054;-75
2024/02/22 12:14:54;;;;;;;0.10;0.10;;;10.10;76.20;;;;;;4973900;28;20031;-74
2024/02/22 12:17:24;;;;;;;0.10;0.10;;;10.10;75.10;;;;;;4973600;28;20046;-74
2024/02/22 12:19:53;;;;;;;0.08;0.08;;;10.10;75.10;;;;;;4973989;28;20118;-75
2024/02/22 12:22:18;;;;;;;0.98;0.20;;;10.20;75.10;;;;;;4973924;28;20026;-73
2024/02/22 12:24:47;;;;;;;0.10;0.10;;;10.10;76.20;;;;;;4973696;28;20027;-73
2024/02/22 12:27:13;;;;;;;0.30;0.30;;;10.10;75.70;;;;;;4957156;28;20539;-75
2024/02/22 12:29:39;;;;;;;0.32;0.10;;;10.10;76.50;;;;;;4974207;28;20464;-75
2024/02/22 12:32:06;;;;;;;0.20;0.10;;;10.00;74.90;;;;;;4973905;28;20034;-74
2024/02/22 12:34:32;;;;;;;0.22;0.13;;;10.10;75.50;;;;;;4973800;28;20029;-75
2024/02/22 12:36:57;;;;;;;0.15;0.10;;;10.10;75.50;;;;;;4974827;28;20026;-74
2024/02/22 12:39:25;;;;;;;0.20;0.20;;;10.10;75.80;;;;;;4960162;28;20027;-74
2024/02/22 12:41:50;;;;;;;0.15;0.10;;;10.10;75.30;;;;;;4977700;28;20026;-75
2024/02/22 12:44:16;;;;;;;0.10;0.10;;;10.20;76.20;;;;;;4977593;28;20023;-76
2024/02/22 12:46:42;;;;;;;0.20;0.10;;;10.10;75.80;;;;;;4977211;28;20196;-75
2024/02/22 12:49:07;;;;;;;0.95;0.20;;;10.20;76.30;;;;;;4977834;28;20364;-74